sensor_id;sensor_type;location;lat;lon;timestamp;temperature;humidity
44517;DHT22;30223;17.182;-96.766;2022-12-18T00:02:10;25.30;45.10
44517;DHT22;30223;17.182;-96.766;2022-12-18T00:04:36;25.30;45.70
44517;DHT22;30223;17.182;-96.766;2022-12-18T00:07:03;25.30;45.80
44517;DHT22;30223;17.182;-96.766;2022-12-18T00:09:30;25.30;46.00
44517;DHT22;30223;17.182;-96.766;2022-12-18T00:11:56;25.20;45.50
44517;DHT22;30223;17.182;-96.766;2022-12-18T00:14:23;25.20;45.40
44517;DHT22;30223;17.182;-96.766;2022-12-18T00:16:49;25.30;46.10
44517;DHT22;30223;17.182;-96.766;2022-12-18T00:19:16;25.30;45.90
44517;DHT22;30223;17.182;-96.766;2022-12-18T00:21:43;25.20;45.40
44517;DHT22;30223;17.182;-96.766;2022-12-18T00:24:11;25.30;45.90
44517;DHT22;30223;17.182;-96.766;2022-12-18T00:26:39;25.30;45.90
44517;DHT22;30223;17.182;-96.766;2022-12-18T00:29:09;25.30;47.10
44517;DHT22;30223;17.182;-96.766;2022-12-18T00:31:38;25.30;46.60
44517;DHT22;30223;17.182;-96.766;2022-12-18T00:34:04;25.40;47.50
44517;DHT22;30223;17.182;-96.766;2022-12-18T00:36:34;25.40;47.90
44517;DHT22;30223;17.182;-96.766;2022-12-18T00:39:04;25.30;46.90
44517;DHT22;30223;17.182;-96.766;2022-12-18T00:41:31;25.40;47.00
44517;DHT22;30223;17.182;-96.766;2022-12-18T00:44:17;25.40;47.20
44517;DHT22;30223;17.182;-96.766;2022-12-18T00:46:45;25.40;47.60
44517;DHT22;30223;17.182;-96.766;2022-12-18T00:49:12;25.40;47.70
44517;DHT22;30223;17.182;-96.766;2022-12-18T00:51:39;25.30;47.20
44517;DHT22;30223;17.182;-96.766;2022-12-18T00:54:06;25.30;47.80
44517;DHT22;30223;17.182;-96.766;2022-12-18T00:56:32;25.30;48.20
44517;DHT22;30223;17.182;-96.766;2022-12-18T00:58:59;25.30;48.70
44517;DHT22;30223;17.182;-96.766;2022-12-18T01:01:25;25.30;48.30
44517;DHT22;30223;17.182;-96.766;2022-12-18T01:03:52;25.20;48.60
44517;DHT22;30223;17.182;-96.766;2022-12-18T01:22:41;25.00;48.00
44517;DHT22;30223;17.182;-96.766;2022-12-18T01:25:09;25.00;49.90
44517;DHT22;30223;17.182;-96.766;2022-12-18T01:27:39;25.00;50.40
44517;DHT22;30223;17.182;-96.766;2022-12-18T01:30:07;25.00;50.30
44517;DHT22;30223;17.182;-96.766;2022-12-18T01:32:46;25.00;50.90
44517;DHT22;30223;17.182;-96.766;2022-12-18T01:35:16;24.90;50.10
44517;DHT22;30223;17.182;-96.766;2022-12-18T01:37:44;24.90;50.10
44517;DHT22;30223;17.182;-96.766;2022-12-18T01:40:14;24.90;50.20
44517;DHT22;30223;17.182;-96.766;2022-12-18T01:42:42;24.90;50.30
44517;DHT22;30223;17.182;-96.766;2022-12-18T01:47:58;24.90;50.90
44517;DHT22;30223;17.182;-96.766;2022-12-18T01:50:32;24.90;50.90
44517;DHT22;30223;17.182;-96.766;2022-12-18T01:53:26;24.90;50.40
44517;DHT22;30223;17.182;-96.766;2022-12-18T01:55:57;24.90;50.50
44517;DHT22;30223;17.182;-96.766;2022-12-18T01:58:56;24.80;50.70
44517;DHT22;30223;17.182;-96.766;2022-12-18T02:01:25;24.80;50.50
44517;DHT22;30223;17.182;-96.766;2022-12-18T02:03:53;24.70;50.00
44517;DHT22;30223;17.182;-96.766;2022-12-18T02:06:34;24.70;50.10
44517;DHT22;30223;17.182;-96.766;2022-12-18T02:21:21;24.60;50.60
44517;DHT22;30223;17.182;-96.766;2022-12-18T02:29:24;24.50;51.40
44517;DHT22;30223;17.182;-96.766;2022-12-18T02:31:59;24.50;51.70
44517;DHT22;30223;17.182;-96.766;2022-12-18T02:34:32;24.50;51.50
44517;DHT22;30223;17.182;-96.766;2022-12-18T02:37:07;24.50;51.60
44517;DHT22;30223;17.182;-96.766;2022-12-18T02:39:38;24.50;51.70
44517;DHT22;30223;17.182;-96.766;2022-12-18T02:42:16;24.40;51.70
44517;DHT22;30223;17.182;-96.766;2022-12-18T02:44:49;24.40;51.70
44517;DHT22;30223;17.182;-96.766;2022-12-18T02:47:22;24.40;51.70
44517;DHT22;30223;17.182;-96.766;2022-12-18T02:58:47;24.40;52.30
44517;DHT22;30223;17.182;-96.766;2022-12-18T03:01:19;24.30;52.30
44517;DHT22;30223;17.182;-96.766;2022-12-18T03:06:32;24.30;52.60
44517;DHT22;30223;17.182;-96.766;2022-12-18T03:09:09;24.40;52.40
44517;DHT22;30223;17.182;-96.766;2022-12-18T03:11:42;24.40;53.00
44517;DHT22;30223;17.182;-96.766;2022-12-18T03:17:23;24.50;53.00
44517;DHT22;30223;17.182;-96.766;2022-12-18T03:19:56;24.60;52.80
44517;DHT22;30223;17.182;-96.766;2022-12-18T03:22:34;24.60;53.80
44517;DHT22;30223;17.182;-96.766;2022-12-18T03:25:07;24.60;53.00
44517;DHT22;30223;17.182;-96.766;2022-12-18T03:27:42;24.60;52.90
44517;DHT22;30223;17.182;-96.766;2022-12-18T03:30:12;24.70;53.40
44517;DHT22;30223;17.182;-96.766;2022-12-18T03:32:52;24.80;53.80
44517;DHT22;30223;17.182;-96.766;2022-12-18T03:35:26;24.70;53.10
44517;DHT22;30223;17.182;-96.766;2022-12-18T03:37:57;24.80;53.60
44517;DHT22;30223;17.182;-96.766;2022-12-18T03:40:50;24.80;53.30
44517;DHT22;30223;17.182;-96.766;2022-12-18T03:43:35;24.80;53.40
44517;DHT22;30223;17.182;-96.766;2022-12-18T03:49:32;24.80;53.20
44517;DHT22;30223;17.182;-96.766;2022-12-18T03:52:09;24.80;53.00
44517;DHT22;30223;17.182;-96.766;2022-12-18T03:54:41;24.80;53.00
44517;DHT22;30223;17.182;-96.766;2022-12-18T03:57:15;24.90;53.00
44517;DHT22;30223;17.182;-96.766;2022-12-18T03:59:48;24.90;54.40
44517;DHT22;30223;17.182;-96.766;2022-12-18T04:02:24;25.00;53.10
44517;DHT22;30223;17.182;-96.766;2022-12-18T04:04:59;24.90;52.30
44517;DHT22;30223;17.182;-96.766;2022-12-18T04:07:30;24.90;52.20
44517;DHT22;30223;17.182;-96.766;2022-12-18T04:10:04;24.90;53.10
44517;DHT22;30223;17.182;-96.766;2022-12-18T04:12:43;24.90;52.20
44517;DHT22;30223;17.182;-96.766;2022-12-18T04:15:12;24.90;52.50
44517;DHT22;30223;17.182;-96.766;2022-12-18T04:17:49;25.00;52.90
44517;DHT22;30223;17.182;-96.766;2022-12-18T04:20:20;24.90;52.30
44517;DHT22;30223;17.182;-96.766;2022-12-18T04:22:50;24.90;53.00
44517;DHT22;30223;17.182;-96.766;2022-12-18T04:25:22;24.90;52.70
44517;DHT22;30223;17.182;-96.766;2022-12-18T04:27:51;24.90;52.70
44517;DHT22;30223;17.182;-96.766;2022-12-18T04:30:20;24.90;52.50
44517;DHT22;30223;17.182;-96.766;2022-12-18T04:32:49;24.90;52.40
44517;DHT22;30223;17.182;-96.766;2022-12-18T04:35:18;24.80;52.30
44517;DHT22;30223;17.182;-96.766;2022-12-18T04:37:47;24.80;52.30
44517;DHT22;30223;17.182;-96.766;2022-12-18T04:40:21;24.80;52.30
44517;DHT22;30223;17.182;-96.766;2022-12-18T04:42:53;24.80;52.40
44517;DHT22;30223;17.182;-96.766;2022-12-18T04:45:22;24.80;52.60
44517;DHT22;30223;17.182;-96.766;2022-12-18T04:47:50;24.80;53.40
44517;DHT22;30223;17.182;-96.766;2022-12-18T04:50:21;24.80;52.20
44517;DHT22;30223;17.182;-96.766;2022-12-18T04:52:50;24.80;52.30
44517;DHT22;30223;17.182;-96.766;2022-12-18T04:55:21;24.80;52.30
44517;DHT22;30223;17.182;-96.766;2022-12-18T04:57:50;24.80;52.50
44517;DHT22;30223;17.182;-96.766;2022-12-18T05:00:20;24.70;52.50
44517;DHT22;30223;17.182;-96.766;2022-12-18T05:02:49;24.90;52.50
44517;DHT22;30223;17.182;-96.766;2022-12-18T05:05:18;24.90;52.10
44517;DHT22;30223;17.182;-96.766;2022-12-18T05:07:48;24.80;52.10
44517;DHT22;30223;17.182;-96.766;2022-12-18T05:10:18;24.80;52.10
44517;DHT22;30223;17.182;-96.766;2022-12-18T05:12:46;24.80;52.20
44517;DHT22;30223;17.182;-96.766;2022-12-18T05:15:33;24.70;52.50
44517;DHT22;30223;17.182;-96.766;2022-12-18T05:18:03;24.80;52.40
44517;DHT22;30223;17.182;-96.766;2022-12-18T05:20:40;24.80;52.40
44517;DHT22;30223;17.182;-96.766;2022-12-18T05:23:19;24.80;52.20
44517;DHT22;30223;17.182;-96.766;2022-12-18T05:28:21;24.80;52.40
44517;DHT22;30223;17.182;-96.766;2022-12-18T05:30:54;24.80;52.40
44517;DHT22;30223;17.182;-96.766;2022-12-18T05:33:23;24.70;52.30
44517;DHT22;30223;17.182;-96.766;2022-12-18T05:35:55;24.80;52.30
44517;DHT22;30223;17.182;-96.766;2022-12-18T05:38:27;24.80;52.30
44517;DHT22;30223;17.182;-96.766;2022-12-18T05:40:57;24.80;52.10
44517;DHT22;30223;17.182;-96.766;2022-12-18T05:43:27;24.80;52.50
44517;DHT22;30223;17.182;-96.766;2022-12-18T05:45:55;24.80;52.30
44517;DHT22;30223;17.182;-96.766;2022-12-18T05:48:27;24.80;52.10
44517;DHT22;30223;17.182;-96.766;2022-12-18T05:51:04;24.80;52.20
44517;DHT22;30223;17.182;-96.766;2022-12-18T05:53:36;24.80;52.10
44517;DHT22;30223;17.182;-96.766;2022-12-18T05:56:09;24.80;52.10
44517;DHT22;30223;17.182;-96.766;2022-12-18T05:58:42;24.80;52.20
44517;DHT22;30223;17.182;-96.766;2022-12-18T06:01:22;24.80;52.10
44517;DHT22;30223;17.182;-96.766;2022-12-18T06:03:50;24.80;52.10
44517;DHT22;30223;17.182;-96.766;2022-12-18T06:06:25;24.70;52.10
44517;DHT22;30223;17.182;-96.766;2022-12-18T06:08:57;24.70;52.00
44517;DHT22;30223;17.182;-96.766;2022-12-18T06:11:25;24.60;52.00
44517;DHT22;30223;17.182;-96.766;2022-12-18T06:13:57;24.70;52.10
44517;DHT22;30223;17.182;-96.766;2022-12-18T06:16:28;24.60;52.10
44517;DHT22;30223;17.182;-96.766;2022-12-18T06:19:01;24.70;52.20
44517;DHT22;30223;17.182;-96.766;2022-12-18T06:21:28;24.60;52.10
44517;DHT22;30223;17.182;-96.766;2022-12-18T06:23:55;24.70;52.30
44517;DHT22;30223;17.182;-96.766;2022-12-18T06:26:22;24.70;52.30
44517;DHT22;30223;17.182;-96.766;2022-12-18T06:28:49;24.70;52.30
44517;DHT22;30223;17.182;-96.766;2022-12-18T06:31:15;24.70;53.00
44517;DHT22;30223;17.182;-96.766;2022-12-18T06:33:43;24.60;52.40
44517;DHT22;30223;17.182;-96.766;2022-12-18T06:36:12;24.60;52.30
44517;DHT22;30223;17.182;-96.766;2022-12-18T06:38:43;24.60;52.20
44517;DHT22;30223;17.182;-96.766;2022-12-18T06:41:18;24.50;52.10
44517;DHT22;30223;17.182;-96.766;2022-12-18T06:43:49;24.50;52.00
44517;DHT22;30223;17.182;-96.766;2022-12-18T06:46:17;24.50;52.00
44517;DHT22;30223;17.182;-96.766;2022-12-18T06:48:57;24.50;52.00
44517;DHT22;30223;17.182;-96.766;2022-12-18T06:51:24;24.40;52.00
44517;DHT22;30223;17.182;-96.766;2022-12-18T06:53:51;24.40;52.10
44517;DHT22;30223;17.182;-96.766;2022-12-18T06:56:24;24.30;52.00
44517;DHT22;30223;17.182;-96.766;2022-12-18T06:58:52;24.30;52.10
44517;DHT22;30223;17.182;-96.766;2022-12-18T07:01:22;24.20;52.00
44517;DHT22;30223;17.182;-96.766;2022-12-18T07:03:56;24.20;52.00
44517;DHT22;30223;17.182;-96.766;2022-12-18T07:06:28;24.20;52.10
44517;DHT22;30223;17.182;-96.766;2022-12-18T07:08:59;24.20;52.10
44517;DHT22;30223;17.182;-96.766;2022-12-18T07:11:28;24.10;52.10
44517;DHT22;30223;17.182;-96.766;2022-12-18T07:14:02;24.10;52.10
44517;DHT22;30223;17.182;-96.766;2022-12-18T07:16:32;24.10;52.10
44517;DHT22;30223;17.182;-96.766;2022-12-18T07:18:58;24.10;52.10
44517;DHT22;30223;17.182;-96.766;2022-12-18T07:21:26;24.00;52.10
44517;DHT22;30223;17.182;-96.766;2022-12-18T07:23:57;24.10;52.30
44517;DHT22;30223;17.182;-96.766;2022-12-18T07:26:24;24.00;52.10
44517;DHT22;30223;17.182;-96.766;2022-12-18T07:28:57;24.00;52.20
44517;DHT22;30223;17.182;-96.766;2022-12-18T07:31:27;24.00;52.20
44517;DHT22;30223;17.182;-96.766;2022-12-18T07:33:57;24.00;52.30
44517;DHT22;30223;17.182;-96.766;2022-12-18T07:36:25;24.00;52.30
44517;DHT22;30223;17.182;-96.766;2022-12-18T07:38:52;23.90;52.30
44517;DHT22;30223;17.182;-96.766;2022-12-18T07:41:20;23.90;52.30
44517;DHT22;30223;17.182;-96.766;2022-12-18T07:43:48;23.90;52.30
44517;DHT22;30223;17.182;-96.766;2022-12-18T07:46:17;23.90;52.30
44517;DHT22;30223;17.182;-96.766;2022-12-18T07:48:44;23.90;52.30
44517;DHT22;30223;17.182;-96.766;2022-12-18T07:51:14;23.80;52.30
44517;DHT22;30223;17.182;-96.766;2022-12-18T07:53:48;23.80;52.30
44517;DHT22;30223;17.182;-96.766;2022-12-18T07:56:15;23.80;52.40
44517;DHT22;30223;17.182;-96.766;2022-12-18T07:58:45;23.80;52.40
44517;DHT22;30223;17.182;-96.766;2022-12-18T08:01:13;23.80;52.40
44517;DHT22;30223;17.182;-96.766;2022-12-18T08:03:42;23.80;52.40
44517;DHT22;30223;17.182;-96.766;2022-12-18T08:06:09;23.80;52.40
44517;DHT22;30223;17.182;-96.766;2022-12-18T08:08:37;23.80;52.40
44517;DHT22;30223;17.182;-96.766;2022-12-18T08:11:04;23.70;52.40
44517;DHT22;30223;17.182;-96.766;2022-12-18T08:13:34;23.70;52.40
44517;DHT22;30223;17.182;-96.766;2022-12-18T08:16:07;23.70;52.40
44517;DHT22;30223;17.182;-96.766;2022-12-18T08:18:39;23.70;52.40
44517;DHT22;30223;17.182;-96.766;2022-12-18T08:21:20;23.70;52.70
44517;DHT22;30223;17.182;-96.766;2022-12-18T08:23:52;23.70;52.50
44517;DHT22;30223;17.182;-96.766;2022-12-18T08:26:21;23.60;52.40
44517;DHT22;30223;17.182;-96.766;2022-12-18T08:28:50;23.60;52.40
44517;DHT22;30223;17.182;-96.766;2022-12-18T08:31:18;23.70;52.60
44517;DHT22;30223;17.182;-96.766;2022-12-18T08:33:45;23.60;52.50
44517;DHT22;30223;17.182;-96.766;2022-12-18T08:36:14;23.60;52.50
44517;DHT22;30223;17.182;-96.766;2022-12-18T08:38:41;23.50;52.40
44517;DHT22;30223;17.182;-96.766;2022-12-18T08:41:13;23.50;52.50
44517;DHT22;30223;17.182;-96.766;2022-12-18T08:43:43;23.50;52.50
44517;DHT22;30223;17.182;-96.766;2022-12-18T08:46:34;23.50;52.60
44517;DHT22;30223;17.182;-96.766;2022-12-18T08:49:01;23.50;52.50
44517;DHT22;30223;17.182;-96.766;2022-12-18T08:51:30;23.50;52.60
44517;DHT22;30223;17.182;-96.766;2022-12-18T08:53:59;23.40;52.50
44517;DHT22;30223;17.182;-96.766;2022-12-18T08:56:26;23.50;52.60
44517;DHT22;30223;17.182;-96.766;2022-12-18T08:58:57;23.40;52.60
44517;DHT22;30223;17.182;-96.766;2022-12-18T09:01:24;23.40;52.50
44517;DHT22;30223;17.182;-96.766;2022-12-18T09:03:54;23.40;52.50
44517;DHT22;30223;17.182;-96.766;2022-12-18T09:06:23;23.40;52.60
44517;DHT22;30223;17.182;-96.766;2022-12-18T09:08:50;23.40;52.50
44517;DHT22;30223;17.182;-96.766;2022-12-18T09:11:24;23.40;52.50
44517;DHT22;30223;17.182;-96.766;2022-12-18T09:13:53;23.40;52.50
44517;DHT22;30223;17.182;-96.766;2022-12-18T09:16:23;23.30;52.50
44517;DHT22;30223;17.182;-96.766;2022-12-18T09:18:55;23.40;52.60
44517;DHT22;30223;17.182;-96.766;2022-12-18T09:21:29;23.30;52.50
44517;DHT22;30223;17.182;-96.766;2022-12-18T09:23:58;23.30;52.50
44517;DHT22;30223;17.182;-96.766;2022-12-18T09:26:32;23.30;52.50
44517;DHT22;30223;17.182;-96.766;2022-12-18T09:29:06;23.30;52.50
44517;DHT22;30223;17.182;-96.766;2022-12-18T09:31:35;23.30;52.50
44517;DHT22;30223;17.182;-96.766;2022-12-18T09:34:04;23.30;52.60
44517;DHT22;30223;17.182;-96.766;2022-12-18T09:36:35;23.30;52.50
44517;DHT22;30223;17.182;-96.766;2022-12-18T09:39:02;23.20;52.50
44517;DHT22;30223;17.182;-96.766;2022-12-18T09:42:02;23.20;52.50
44517;DHT22;30223;17.182;-96.766;2022-12-18T09:44:58;23.20;52.50
44517;DHT22;30223;17.182;-96.766;2022-12-18T09:47:33;23.20;52.50
44517;DHT22;30223;17.182;-96.766;2022-12-18T09:50:13;23.20;52.50
44517;DHT22;30223;17.182;-96.766;2022-12-18T09:52:47;23.20;52.40
44517;DHT22;30223;17.182;-96.766;2022-12-18T09:55:36;23.20;52.40
44517;DHT22;30223;17.182;-96.766;2022-12-18T10:00:40;23.20;52.40
44517;DHT22;30223;17.182;-96.766;2022-12-18T10:03:13;23.10;52.30
44517;DHT22;30223;17.182;-96.766;2022-12-18T10:06:28;23.10;52.30
44517;DHT22;30223;17.182;-96.766;2022-12-18T10:08:43;23.10;52.30
44517;DHT22;30223;17.182;-96.766;2022-12-18T10:22:22;23.00;52.40
44517;DHT22;30223;17.182;-96.766;2022-12-18T10:25:01;23.00;52.40
44517;DHT22;30223;17.182;-96.766;2022-12-18T10:27:31;23.00;52.40
44517;DHT22;30223;17.182;-96.766;2022-12-18T10:29:59;23.00;52.40
44517;DHT22;30223;17.182;-96.766;2022-12-18T10:32:30;22.90;52.40
44517;DHT22;30223;17.182;-96.766;2022-12-18T10:34:58;22.90;52.40
44517;DHT22;30223;17.182;-96.766;2022-12-18T10:37:28;22.90;52.40
44517;DHT22;30223;17.182;-96.766;2022-12-18T10:40:14;22.90;52.40
44517;DHT22;30223;17.182;-96.766;2022-12-18T10:42:45;22.90;52.40
44517;DHT22;30223;17.182;-96.766;2022-12-18T10:45:17;22.90;52.40
44517;DHT22;30223;17.182;-96.766;2022-12-18T10:47:51;22.90;52.40
44517;DHT22;30223;17.182;-96.766;2022-12-18T10:50:46;22.80;52.40
44517;DHT22;30223;17.182;-96.766;2022-12-18T10:53:21;22.80;52.40
44517;DHT22;30223;17.182;-96.766;2022-12-18T10:55:50;22.80;52.40
44517;DHT22;30223;17.182;-96.766;2022-12-18T10:58:28;22.80;52.40
44517;DHT22;30223;17.182;-96.766;2022-12-18T11:01:14;22.80;52.40
44517;DHT22;30223;17.182;-96.766;2022-12-18T11:03:58;22.80;52.40
44517;DHT22;30223;17.182;-96.766;2022-12-18T11:06:26;22.70;52.30
44517;DHT22;30223;17.182;-96.766;2022-12-18T11:09:19;22.70;52.30
44517;DHT22;30223;17.182;-96.766;2022-12-18T11:11:57;22.70;52.30
44517;DHT22;30223;17.182;-96.766;2022-12-18T11:14:30;22.70;52.40
44517;DHT22;30223;17.182;-96.766;2022-12-18T11:17:00;22.60;52.30
44517;DHT22;30223;17.182;-96.766;2022-12-18T11:19:37;22.60;52.30
44517;DHT22;30223;17.182;-96.766;2022-12-18T11:22:28;22.60;52.30
44517;DHT22;30223;17.182;-96.766;2022-12-18T11:25:02;22.60;52.30
44517;DHT22;30223;17.182;-96.766;2022-12-18T11:27:30;22.60;52.40
44517;DHT22;30223;17.182;-96.766;2022-12-18T11:30:25;22.50;52.90
44517;DHT22;30223;17.182;-96.766;2022-12-18T11:38:35;22.50;52.30
44517;DHT22;30223;17.182;-96.766;2022-12-18T11:44:02;22.50;52.30
44517;DHT22;30223;17.182;-96.766;2022-12-18T11:46:39;22.50;52.30
44517;DHT22;30223;17.182;-96.766;2022-12-18T11:49:37;22.40;52.30
44517;DHT22;30223;17.182;-96.766;2022-12-18T11:52:16;22.50;52.30
44517;DHT22;30223;17.182;-96.766;2022-12-18T11:54:44;22.40;52.30
44517;DHT22;30223;17.182;-96.766;2022-12-18T12:00:12;22.40;52.30
44517;DHT22;30223;17.182;-96.766;2022-12-18T12:06:09;22.30;52.20
44517;DHT22;30223;17.182;-96.766;2022-12-18T12:17:45;22.30;52.30
44517;DHT22;30223;17.182;-96.766;2022-12-18T12:20:47;22.30;52.40
44517;DHT22;30223;17.182;-96.766;2022-12-18T12:23:36;22.20;52.30
44517;DHT22;30223;17.182;-96.766;2022-12-18T12:40:05;22.10;52.50
44517;DHT22;30223;17.182;-96.766;2022-12-18T12:42:43;22.10;52.50
44517;DHT22;30223;17.182;-96.766;2022-12-18T12:50:54;22.00;52.50
44517;DHT22;30223;17.182;-96.766;2022-12-18T12:53:26;22.00;52.60
44517;DHT22;30223;17.182;-96.766;2022-12-18T12:55:56;22.00;52.50
44517;DHT22;30223;17.182;-96.766;2022-12-18T12:58:41;22.00;52.50
44517;DHT22;30223;17.182;-96.766;2022-12-18T13:08:59;21.90;52.50
44517;DHT22;30223;17.182;-96.766;2022-12-18T13:11:40;21.90;52.60
44517;DHT22;30223;17.182;-96.766;2022-12-18T13:14:34;21.90;52.60
44517;DHT22;30223;17.182;-96.766;2022-12-18T13:20:12;21.80;52.60
44517;DHT22;30223;17.182;-96.766;2022-12-18T13:22:49;21.80;52.60
44517;DHT22;30223;17.182;-96.766;2022-12-18T13:25:31;21.80;52.60
44517;DHT22;30223;17.182;-96.766;2022-12-18T13:36:15;21.70;52.50
44517;DHT22;30223;17.182;-96.766;2022-12-18T13:38:47;21.70;52.70
44517;DHT22;30223;17.182;-96.766;2022-12-18T13:41:34;21.70;52.70
44517;DHT22;30223;17.182;-96.766;2022-12-18T13:44:30;21.70;52.70
44517;DHT22;30223;17.182;-96.766;2022-12-18T13:46:59;21.60;53.30
44517;DHT22;30223;17.182;-96.766;2022-12-18T14:03:48;21.60;52.30
44517;DHT22;30223;17.182;-96.766;2022-12-18T14:06:16;21.70;53.10
44517;DHT22;30223;17.182;-96.766;2022-12-18T14:08:43;21.60;52.50
44517;DHT22;30223;17.182;-96.766;2022-12-18T14:11:23;21.60;52.70
44517;DHT22;30223;17.182;-96.766;2022-12-18T14:13:50;21.60;52.70
44517;DHT22;30223;17.182;-96.766;2022-12-18T14:16:17;21.50;52.80
44517;DHT22;30223;17.182;-96.766;2022-12-18T14:18:56;21.50;52.80
44517;DHT22;30223;17.182;-96.766;2022-12-18T14:21:30;21.50;52.80
44517;DHT22;30223;17.182;-96.766;2022-12-18T14:38:22;21.40;52.20
44517;DHT22;30223;17.182;-96.766;2022-12-18T14:40:53;21.60;52.50
44517;DHT22;30223;17.182;-96.766;2022-12-18T14:43:20;21.50;52.70
44517;DHT22;30223;17.182;-96.766;2022-12-18T14:45:47;21.50;52.80
44517;DHT22;30223;17.182;-96.766;2022-12-18T14:48:33;21.40;52.80
44517;DHT22;30223;17.182;-96.766;2022-12-18T14:53:44;21.40;52.90
44517;DHT22;30223;17.182;-96.766;2022-12-18T14:58:55;21.40;53.10
44517;DHT22;30223;17.182;-96.766;2022-12-18T15:01:25;21.40;53.10
44517;DHT22;30223;17.182;-96.766;2022-12-18T15:03:56;21.40;53.10
44517;DHT22;30223;17.182;-96.766;2022-12-18T15:06:32;21.40;53.20
44517;DHT22;30223;17.182;-96.766;2022-12-18T15:09:03;21.40;53.20
44517;DHT22;30223;17.182;-96.766;2022-12-18T15:11:43;21.40;53.40
44517;DHT22;30223;17.182;-96.766;2022-12-18T15:14:33;21.40;53.50
44517;DHT22;30223;17.182;-96.766;2022-12-18T15:17:18;21.40;53.50
44517;DHT22;30223;17.182;-96.766;2022-12-18T15:19:52;21.50;53.90
44517;DHT22;30223;17.182;-96.766;2022-12-18T15:22:27;21.70;54.30
44517;DHT22;30223;17.182;-96.766;2022-12-18T15:24:56;21.80;54.50
44517;DHT22;30223;17.182;-96.766;2022-12-18T15:27:33;21.90;54.30
44517;DHT22;30223;17.182;-96.766;2022-12-18T15:32:36;22.00;54.40
44517;DHT22;30223;17.182;-96.766;2022-12-18T15:37:34;22.10;54.50
44517;DHT22;30223;17.182;-96.766;2022-12-18T15:40:01;22.10;54.20
44517;DHT22;30223;17.182;-96.766;2022-12-18T15:42:29;22.10;54.00
44517;DHT22;30223;17.182;-96.766;2022-12-18T15:45:14;22.20;54.10
44517;DHT22;30223;17.182;-96.766;2022-12-18T15:47:41;22.30;54.00
44517;DHT22;30223;17.182;-96.766;2022-12-18T15:50:10;22.30;54.10
44517;DHT22;30223;17.182;-96.766;2022-12-18T15:52:45;22.40;54.20
44517;DHT22;30223;17.182;-96.766;2022-12-18T15:55:17;22.40;54.10
44517;DHT22;30223;17.182;-96.766;2022-12-18T15:58:03;22.40;53.90
44517;DHT22;30223;17.182;-96.766;2022-12-18T16:00:30;22.40;53.90
44517;DHT22;30223;17.182;-96.766;2022-12-18T16:02:57;22.40;53.90
44517;DHT22;30223;17.182;-96.766;2022-12-18T16:05:24;22.40;54.10
44517;DHT22;30223;17.182;-96.766;2022-12-18T16:07:52;22.50;54.10
44517;DHT22;30223;17.182;-96.766;2022-12-18T16:10:18;22.50;54.00
44517;DHT22;30223;17.182;-96.766;2022-12-18T16:12:45;22.60;54.50
44517;DHT22;30223;17.182;-96.766;2022-12-18T16:15:15;22.80;54.20
44517;DHT22;30223;17.182;-96.766;2022-12-18T16:17:43;22.80;54.00
44517;DHT22;30223;17.182;-96.766;2022-12-18T16:20:15;22.80;54.00
44517;DHT22;30223;17.182;-96.766;2022-12-18T16:22:43;22.90;53.90
44517;DHT22;30223;17.182;-96.766;2022-12-18T16:25:21;22.90;54.60
44517;DHT22;30223;17.182;-96.766;2022-12-18T16:27:49;22.90;53.90
44517;DHT22;30223;17.182;-96.766;2022-12-18T16:30:27;23.00;54.50
44517;DHT22;30223;17.182;-96.766;2022-12-18T16:32:58;23.00;53.70
44517;DHT22;30223;17.182;-96.766;2022-12-18T16:35:25;23.00;53.80
44517;DHT22;30223;17.182;-96.766;2022-12-18T16:37:56;23.00;53.60
44517;DHT22;30223;17.182;-96.766;2022-12-18T16:40:22;23.00;53.50
44517;DHT22;30223;17.182;-96.766;2022-12-18T16:42:49;23.00;53.50
44517;DHT22;30223;17.182;-96.766;2022-12-18T16:45:17;23.10;53.70
44517;DHT22;30223;17.182;-96.766;2022-12-18T16:47:44;23.10;53.70
44517;DHT22;30223;17.182;-96.766;2022-12-18T16:50:11;23.10;53.40
44517;DHT22;30223;17.182;-96.766;2022-12-18T16:52:38;23.10;53.50
44517;DHT22;30223;17.182;-96.766;2022-12-18T16:55:05;23.20;53.90
44517;DHT22;30223;17.182;-96.766;2022-12-18T16:57:32;23.20;53.60
44517;DHT22;30223;17.182;-96.766;2022-12-18T16:59:58;23.20;53.50
44517;DHT22;30223;17.182;-96.766;2022-12-18T17:02:26;23.20;53.20
44517;DHT22;30223;17.182;-96.766;2022-12-18T17:04:56;23.10;52.30
44517;DHT22;30223;17.182;-96.766;2022-12-18T17:07:24;23.10;52.70
44517;DHT22;30223;17.182;-96.766;2022-12-18T17:09:51;23.10;52.80
44517;DHT22;30223;17.182;-96.766;2022-12-18T17:12:19;23.00;52.50
44517;DHT22;30223;17.182;-96.766;2022-12-18T17:14:46;23.00;52.60
44517;DHT22;30223;17.182;-96.766;2022-12-18T17:17:12;23.00;53.00
44517;DHT22;30223;17.182;-96.766;2022-12-18T17:19:39;23.00;52.60
44517;DHT22;30223;17.182;-96.766;2022-12-18T17:22:05;22.90;52.30
44517;DHT22;30223;17.182;-96.766;2022-12-18T17:24:33;22.80;52.10
44517;DHT22;30223;17.182;-96.766;2022-12-18T17:26:59;22.90;52.40
44517;DHT22;30223;17.182;-96.766;2022-12-18T17:29:26;22.80;52.50
44517;DHT22;30223;17.182;-96.766;2022-12-18T17:31:52;22.90;52.80
44517;DHT22;30223;17.182;-96.766;2022-12-18T17:34:19;22.90;53.10
44517;DHT22;30223;17.182;-96.766;2022-12-18T17:36:46;22.80;52.20
44517;DHT22;30223;17.182;-96.766;2022-12-18T17:39:17;22.80;52.70
44517;DHT22;30223;17.182;-96.766;2022-12-18T17:41:44;22.90;53.10
44517;DHT22;30223;17.182;-96.766;2022-12-18T17:44:11;22.90;53.40
44517;DHT22;30223;17.182;-96.766;2022-12-18T17:46:37;22.90;53.40
44517;DHT22;30223;17.182;-96.766;2022-12-18T17:49:04;23.00;53.60
44517;DHT22;30223;17.182;-96.766;2022-12-18T17:51:31;23.00;53.70
44517;DHT22;30223;17.182;-96.766;2022-12-18T17:53:57;23.00;53.90
44517;DHT22;30223;17.182;-96.766;2022-12-18T17:56:24;23.10;54.10
44517;DHT22;30223;17.182;-96.766;2022-12-18T17:58:51;23.10;54.20
44517;DHT22;30223;17.182;-96.766;2022-12-18T18:01:21;23.10;54.90
44517;DHT22;30223;17.182;-96.766;2022-12-18T18:03:48;23.30;57.20
44517;DHT22;30223;17.182;-96.766;2022-12-18T18:06:15;23.30;55.90
44517;DHT22;30223;17.182;-96.766;2022-12-18T18:08:42;23.40;55.80
44517;DHT22;30223;17.182;-96.766;2022-12-18T18:11:13;23.50;54.20
44517;DHT22;30223;17.182;-96.766;2022-12-18T18:13:59;23.50;54.80
44517;DHT22;30223;17.182;-96.766;2022-12-18T18:16:33;23.60;54.60
44517;DHT22;30223;17.182;-96.766;2022-12-18T18:19:02;23.60;54.70
44517;DHT22;30223;17.182;-96.766;2022-12-18T18:21:30;23.60;53.40
44517;DHT22;30223;17.182;-96.766;2022-12-18T18:24:01;23.80;54.30
44517;DHT22;30223;17.182;-96.766;2022-12-18T18:26:30;23.80;54.50